• Join FlightAware (Why Join?)
  • Login
  • US Flag 
07:00PM EDT


 

Airport Tracker/Info


-or-


 

Live Flight TrackerFlight Track Log ✈ N75ZM ✈ 04-Oct-2013 ✈ KFPR - MYAM / MHH

Flight Track Log - Related Links

Times and Time Zones

All times are in EDT time to prevent confusion due to time zone crossing. See the N75ZM flight status page for this flight to view local times or setup timezone preferences in your user account.

Time Position Orientation Groundspeed Altitude Reporting Facility
EDT Latitude Longitude Course Direction KTS MPH feet Rate Location/Type
11:29AM 27.4653 -80.3397 150° Southeast 147 169 7,000  Level Miami Center
11:30AM 27.4386 -80.3225 150° Southeast 118 136 2,700 -1,740 Descending Miami Center
11:31AM 27.4331 -80.2847 99° East 92 106 3,600 780 Climbing Miami Center
11:32AM 27.4297 -80.2472 96° East 109 125 4,300 600 Climbing Miami Center
11:33AM 27.4244 -80.2072 98° East 120 138 4,900 600 Climbing Miami Center
11:34AM 27.4233 -80.1700 92° East 127 146 5,500 540 Climbing Miami Center
11:35AM 27.4200 -80.1253 95° East 127 146 6,000 480 Climbing Miami Center
11:36AM 27.4044 -80.0828 112° Southeast 127 146 6,500 420 Climbing Miami Center
11:37AM 27.3842 -80.0472 123° Southeast 137 158 6,900 300 Climbing Miami Center
11:38AM 27.3619 -80.0139 127° Southeast 147 169 7,200 120 Climbing Miami Center
11:39AM 27.3381 -79.9711 122° Southeast 152 175 7,200 -60 Level Miami Center
11:40AM 27.3097 -79.9258 125° Southeast 158 182 7,100 -60 Descending Miami Center
11:41AM 27.2814 -79.8808 125° Southeast 158 182 7,100  Level Miami Center
11:42AM 27.2592 -79.8381 120° Southeast 163 188 7,100  Level Miami Center
11:43AM 27.2350 -79.7978 124° Southeast 163 188 7,100  Level Miami Center
11:44AM 27.2089 -79.7550 124° Southeast 163 188 7,100  Level Miami Center
11:45AM 27.1783 -79.7075 126° Southeast 170 196 7,100  Level Miami Center
11:46AM 27.1519 -79.6650 125° Southeast 170 196 7,100  Level Miami Center
11:47AM 27.1278 -79.6200 121° Southeast 170 196 7,100  Level Miami Center
11:48AM 27.1036 -79.5822 126° Southeast 170 196 7,100  Level Miami Center
11:49AM 27.0750 -79.5372 126° Southeast 170 196 7,100  Level Miami Center
11:50AM 27.0489 -79.4897 122° Southeast 175 201 7,100  Level Miami Center
11:51AM 27.0203 -79.4494 129° Southeast 175 201 7,100  Level Miami Center
11:52AM 26.9981 -79.4094 122° Southeast 170 196 7,100  Level Miami Center
11:53AM 26.9717 -79.3669 125° Southeast 170 196 7,100  Level Miami Center
11:54AM 26.9433 -79.3197 124° Southeast 170 196 7,100  Level Miami Center
11:55AM 26.9189 -79.2750 122° Southeast 176 203 7,100  Level Miami Center
11:56AM 26.8883 -79.2325 129° Southeast 176 203 7,100  Level Miami Center
11:57AM 26.8619 -79.1875 123° Southeast 176 203 7,100  Level Miami Center
11:58AM 26.8353 -79.1475 127° Southeast 166 191 7,100 180 Level Miami Center
11:59AM 26.8108 -79.1050 123° Southeast 172 198 7,500 420 Climbing Miami Center
12:00PM 26.7864 -79.0675 126° Southeast 162 186 8,000 480 Climbing Miami Center
12:01PM 26.7642 -79.0275 122° Southeast 150 173 8,500 480 Climbing Miami Center
12:02PM 26.7417 -78.9922 126° Southeast 150 173 9,000 300 Climbing Miami Center
12:03PM 26.7172 -78.9522 124° Southeast 150 173 9,100  Climbing Miami Center
12:04PM 26.6925 -78.9122 125° Southeast 150 173 9,100  Level Miami Center
12:05PM 26.6597 -78.8650 128° Southeast 155 178 9,100  Level Miami Center
12:06PM 26.6353 -78.8228 123° Southeast 160 184 9,100  Level Miami Center
12:07PM 26.6108 -78.7783 122° Southeast 165 190 9,100  Level Miami Center
12:08PM 26.5842 -78.7383 127° Southeast 165 190 9,100  Level Miami Center
12:09PM 26.5619 -78.6917 118° Southeast 176 203 9,100  Level Miami Center
12:10PM 26.5542 -78.6450 101° East 163 188 9,100  Level Miami Center
12:11PM 26.5506 -78.5939 95° East 163 188 9,100  Level Miami Center
12:12PM 26.5533 -78.5381 87° East 163 188 9,100  Level Miami Center
12:13PM 26.5517 -78.4894 92° East 163 188 9,100  Level Miami Center
12:14PM 26.5458 -78.4428 98° East 163 188 9,100  Level Miami Center
12:15PM 26.5464 -78.3894 89° East 157 181 9,100  Level Miami Center
12:16PM 26.5492 -78.3267 87° East 163 188 9,100 -60 Level Miami Center
12:17PM 26.5478 -78.2756 92° East 163 188 9,000 -240 Descending Miami Center
12:18PM 26.5461 -78.2175 92° East 173 199 8,700 -300 Descending Miami Center
12:19PM 26.5425 -78.1617 94° East 173 199 8,400 -300 Descending Miami Center
12:20PM 26.5408 -78.1058 92° East 178 205 8,200 -300 Descending Miami Center
12:21PM 26.5394 -78.0408 91° East 191 220 7,900 -300 Descending Miami Center
12:22PM 26.5356 -77.9919 95° East 179 206 7,600 -360 Descending Miami Center
12:23PM 26.5381 -77.9200 88° East 191 220 7,200 -360 Descending Miami Center
12:24PM 26.5386 -77.8714 89° East 191 220 6,900 -360 Descending Miami Center
12:25PM 26.5411 -77.8111 87° East 191 220 6,500 -420 Descending Miami Center
12:26PM 26.5497 -77.7506 81° East 189 217 6,100 -420 Descending Miami Center